Ana Sayfa
METAR-TAF:

METAR-TAF

Havaalanları :

Foz do Iguaçu, Paraná, Brezilya

Enlem: 25-31S, Boylam: 054-35W, yükseklik: 180 m

Güncel hava durumu gözlemi

Rapor saat 00:00 UTC de 54 dakika önce yapıldı.
Rüzgar doğu/güneydoğudan 2 kt
Sıcaklık 17°C
Nem 100%
Basınç 1019 hPa
Görüş mesafesi 10 km veya daha fazla
1500 m altında bulut yok ve kümülonimbus yok

METAR: SBFI 210000Z 12002KT CAVOK 17/17 Q1019

Saat: 21:54 (00:54 UTC)

Tahmin

Rapor saat 22:30 UTC de 2 saat ve 24 dakika önce yapıldı.
Ayın 21'si saat 00 UTC'den ayın 21'si saat 24 UTC'ye kadar geçerli Tahmin
Rüzgar doğudan 5 kt
Görüş mesafesi 10 km veya daha fazla
1500 m altında bulut yok ve kümülonimbus yok
Dönüşüyor
ayın 21'si saat 15 UTC'den ayın 21'si saat 17 UTC'ye kadar
Rüzgar kuzey/kuzeydoğudan 8 kt

TAF: SBFI 202230Z 2100/2124 09005KT CAVOK TN13/2108Z TX27/2118Z BECMG 2115/2117 02008KT RMK PER

4.000'den fazla havaalanı için hava durumu gözlemleri ve tahminleri (METAR ve TAF raporları).

Kullanılabilir istasyonlar harita üzerinde sarı ve kırmızı noktalarla gösterilir.

İstasyonun adını görmek için fareyi noktanın üzerinde gezdirin.

Sonrasında hava gözlem ve tahminlerini görmek için tıklayın.

Haritayı değiştirmek için: yaklaştırmak için siyah artı işaretli yeşil düğmeye ve uzaklaştırmak için de eksi işaretli düğmeye hızla tıklayın; bitişik haritalar için yeşil okları kullanın.


METAR-TAF: